Time;durP1;ratioP1;P1;durP2;ratioP2;P2;SDS_P1;SDS_P2;PMS_P1;PMS_P2;Temp;Humidity;BMP_temperature;BMP_pressure;BME280_temperature;BME280_humidity;BME280_pressure;Samples;Min_cycle;Max_cycle;Signal;HPM_P1;HPM_P2
2023/07/16 00:02:22;;;;;;;7.38;2.38;;;19.90;99.90;;;;;;5094475;28;20658;-53
2023/07/16 00:04:48;;;;;;;5.60;2.40;;;19.80;99.90;;;;;;5094770;28;20173;-53
2023/07/16 00:07:14;;;;;;;8.35;2.33;;;19.80;99.90;;;;;;5076137;28;20215;-53
2023/07/16 00:09:39;;;;;;;6.85;2.15;;;19.80;99.90;;;;;;5094217;28;20672;-51
2023/07/16 00:12:05;;;;;;;7.82;2.67;;;19.70;99.90;;;;;;5094052;28;20696;-52
2023/07/16 00:14:31;;;;;;;11.15;2.50;;;19.70;99.90;;;;;;5094210;28;20216;-51
2023/07/16 00:16:57;;;;;;;7.10;2.15;;;19.70;99.90;;;;;;5094137;28;20644;-51
2023/07/16 00:19:22;;;;;;;7.60;2.08;;;19.60;99.90;;;;;;5076067;28;20157;-52
2023/07/16 00:21:48;;;;;;;7.57;2.35;;;19.60;99.90;;;;;;5094708;28;20655;-51
2023/07/16 00:24:14;;;;;;;6.25;2.10;;;19.60;99.90;;;;;;5093977;28;20153;-50
2023/07/16 00:26:39;;;;;;;9.00;2.25;;;19.60;99.90;;;;;;5094173;28;20640;-49
2023/07/16 00:29:05;;;;;;;15.57;2.55;;;19.50;99.90;;;;;;5075906;28;20684;-50
2023/07/16 00:31:30;;;;;;;8.50;2.03;;;19.50;99.90;;;;;;5093918;28;20158;-51
2023/07/16 00:33:56;;;;;;;6.68;1.98;;;19.40;99.90;;;;;;5094271;28;20180;-51
2023/07/16 00:36:21;;;;;;;6.93;2.80;;;19.40;99.90;;;;;;5093879;28;20161;-49
2023/07/16 00:38:47;;;;;;;8.38;2.30;;;19.40;99.90;;;;;;5094187;28;20252;-50
2023/07/16 00:41:14;;;;;;;9.05;2.95;;;19.40;99.90;;;;;;5093934;28;20173;-51
2023/07/16 00:43:39;;;;;;;10.88;2.35;;;19.40;99.90;;;;;;5093898;28;20169;-50
2023/07/16 00:46:06;;;;;;;6.63;2.00;;;19.30;99.90;;;;;;5093837;28;20294;-49
2023/07/16 00:48:31;;;;;;;13.20;2.45;;;19.30;99.90;;;;;;5092741;28;20227;-49
2023/07/16 00:50:57;;;;;;;5.38;2.20;;;19.30;99.90;;;;;;5093637;28;20664;-50
2023/07/16 00:53:23;;;;;;;8.88;2.15;;;19.20;99.90;;;;;;5093779;28;20169;-50
2023/07/16 00:55:49;;;;;;;7.05;2.22;;;19.20;99.90;;;;;;5093829;28;20161;-49
2023/07/16 00:58:14;;;;;;;7.88;2.30;;;19.20;99.90;;;;;;5093422;28;20177;-49
2023/07/16 01:00:41;;;;;;;9.40;2.67;;;19.10;99.90;;;;;;5093427;28;20172;-49
2023/07/16 01:03:09;;;;;;;4.60;2.28;;;19.10;99.90;;;;;;5093607;28;20173;-50
2023/07/16 01:05:45;;;;;;;6.55;2.20;;;19.10;99.90;;;;;;5093295;28;20173;-50
2023/07/16 01:08:12;;;;;;;8.55;2.58;;;19.20;99.90;;;;;;5076076;28;20208;-50
2023/07/16 01:10:39;;;;;;;7.47;2.50;;;19.00;99.90;;;;;;5093343;28;20625;-50
2023/07/16 01:13:05;;;;;;;9.45;2.70;;;19.00;99.90;;;;;;5093316;28;20260;-49
2023/07/16 01:15:30;;;;;;;9.13;2.70;;;19.40;99.90;;;;;;5093043;28;20249;-49
2023/07/16 01:17:56;;;;;;;6.57;2.40;;;19.00;99.90;;;;;;5093014;28;20613;-49
2023/07/16 01:20:22;;;;;;;6.85;2.63;;;19.00;99.90;;;;;;5074803;28;20173;-50
2023/07/16 01:23:06;;;;;;;4.93;2.30;;;19.00;99.90;;;;;;5093282;28;20200;-49
2023/07/16 01:26:02;;;;;;;10.45;2.83;;;19.00;99.90;;;;;;5092857;28;20645;-49
2023/07/16 01:28:52;;;;;;;8.52;2.67;;;19.00;99.90;;;;;;5092685;28;20201;-49
2023/07/16 01:31:18;;;;;;;9.77;2.75;;;18.90;99.90;;;;;;5093159;28;20166;-50
2023/07/16 01:33:45;;;;;;;5.50;2.42;;;18.90;99.90;;;;;;5092729;28;20245;-49
2023/07/16 01:36:11;;;;;;;8.27;2.53;;;18.80;99.90;;;;;;5092687;28;20173;-49
2023/07/16 01:38:37;;;;;;;7.20;2.05;;;18.90;99.90;;;;;;5092585;28;20158;-49
2023/07/16 01:41:02;;;;;;;6.32;2.35;;;18.80;99.90;;;;;;5074362;28;20175;-49
2023/07/16 01:43:28;;;;;;;7.85;2.80;;;18.80;99.90;;;;;;5092591;28;20173;-49
2023/07/16 01:45:54;;;;;;;7.05;1.92;;;18.80;99.90;;;;;;5092584;28;20173;-49
2023/07/16 01:48:37;;;;;;;11.70;3.10;;;18.70;99.90;;;;;;5092729;28;20208;-50
2023/07/16 01:51:03;;;;;;;8.73;2.70;;;18.70;99.90;;;;;;5074261;28;20177;-49
2023/07/16 01:53:29;;;;;;;9.68;2.42;;;18.60;99.90;;;;;;5092370;28;20157;-50
2023/07/16 01:55:54;;;;;;;6.18;2.10;;;18.60;99.90;;;;;;5074147;28;20165;-50
2023/07/16 01:58:20;;;;;;;8.88;2.47;;;18.60;99.90;;;;;;5092760;28;20176;-49
2023/07/16 02:00:46;;;;;;;8.50;2.38;;;18.70;99.90;;;;;;5092617;28;20640;-49
2023/07/16 02:03:11;;;;;;;8.68;2.00;;;18.70;99.90;;;;;;5092406;28;20169;-49
2023/07/16 02:05:37;;;;;;;7.05;2.15;;;18.60;99.90;;;;;;5092133;28;20248;-50
2023/07/16 02:08:03;;;;;;;4.88;2.13;;;18.60;99.90;;;;;;5092004;28;20196;-50
2023/07/16 02:10:28;;;;;;;3.70;1.90;;;18.60;99.90;;;;;;5091993;28;20245;-49
2023/07/16 02:12:54;;;;;;;2.67;1.73;;;18.60;99.90;;;;;;5092022;28;20201;-49
2023/07/16 02:15:20;;;;;;;9.90;2.50;;;18.60;99.90;;;;;;5092378;28;20161;-51
2023/07/16 02:17:45;;;;;;;8.20;2.35;;;18.60;99.90;;;;;;5092405;28;20168;-51
2023/07/16 02:20:11;;;;;;;6.25;2.10;;;18.60;99.90;;;;;;5091882;28;20527;-52
2023/07/16 02:22:37;;;;;;;7.20;2.50;;;18.60;99.90;;;;;;5091883;28;20169;-50
2023/07/16 02:25:03;;;;;;;8.27;1.80;;;18.50;99.90;;;;;;5091904;28;20175;-51
2023/07/16 02:27:29;;;;;;;8.77;2.30;;;18.50;99.90;;;;;;5091740;28;20256;-50
2023/07/16 02:29:55;;;;;;;7.10;2.30;;;18.50;99.90;;;;;;5091701;28;20249;-51
2023/07/16 02:32:21;;;;;;;9.10;2.15;;;18.50;99.90;;;;;;5091977;28;20169;-49
2023/07/16 02:34:46;;;;;;;11.30;2.45;;;18.50;99.90;;;;;;5092150;28;20165;-50
2023/07/16 02:37:12;;;;;;;9.65;1.92;;;18.40;99.90;;;;;;5091743;28;20193;-50
2023/07/16 02:39:39;;;;;;;3.72;1.77;;;18.50;99.90;;;;;;5073482;28;20219;-51
2023/07/16 02:42:04;;;;;;;5.68;2.10;;;18.50;99.90;;;;;;5091671;28;20310;-49
2023/07/16 02:44:30;;;;;;;8.07;2.20;;;18.50;99.90;;;;;;5091586;28;20643;-53
2023/07/16 02:46:56;;;;;;;6.47;2.10;;;18.40;99.90;;;;;;5091879;28;20260;-50
2023/07/16 02:49:21;;;;;;;7.50;2.03;;;18.40;99.90;;;;;;5091481;28;20560;-54
2023/07/16 02:51:47;;;;;;;5.72;2.33;;;18.40;99.90;;;;;;5092296;28;20643;-54
2023/07/16 02:54:12;;;;;;;4.97;1.83;;;18.40;99.90;;;;;;5091519;28;20222;-51
2023/07/16 02:56:38;;;;;;;6.43;2.47;;;18.30;99.90;;;;;;5091424;28;20169;-53
2023/07/16 02:59:03;;;;;;;9.65;2.20;;;18.30;99.90;;;;;;5091504;28;20179;-50
2023/07/16 03:01:29;;;;;;;4.95;2.17;;;18.30;99.90;;;;;;5091437;28;20201;-53
2023/07/16 03:03:55;;;;;;;5.55;2.10;;;18.20;99.90;;;;;;5091679;28;20165;-53
2023/07/16 03:06:20;;;;;;;11.75;3.10;;;18.20;99.90;;;;;;5073533;28;20641;-54
2023/07/16 03:08:46;;;;;;;6.18;2.13;;;18.20;99.90;;;;;;5091708;28;20250;-54
2023/07/16 03:11:12;;;;;;;7.10;2.00;;;18.20;99.90;;;;;;5073926;28;20303;-51
2023/07/16 03:13:37;;;;;;;10.85;2.28;;;18.10;99.90;;;;;;5095599;28;20595;-53
2023/07/16 03:16:03;;;;;;;5.65;2.10;;;18.10;99.90;;;;;;5095401;28;20244;-53
2023/07/16 03:18:29;;;;;;;9.07;2.97;;;18.10;99.90;;;;;;5095327;28;20704;-50
2023/07/16 03:20:56;;;;;;;4.43;1.90;;;18.10;99.90;;;;;;5095205;28;20698;-50
2023/07/16 03:23:22;;;;;;;5.90;2.00;;;18.10;99.90;;;;;;5095186;28;20165;-50
2023/07/16 03:25:48;;;;;;;3.65;1.70;;;18.00;99.90;;;;;;5095545;28;20161;-51
2023/07/16 03:28:13;;;;;;;5.75;2.20;;;18.00;99.90;;;;;;5095034;28;20201;-53
2023/07/16 03:30:39;;;;;;;9.02;2.50;;;18.00;99.90;;;;;;5095108;28;20166;-53
2023/07/16 03:33:04;;;;;;;6.53;2.13;;;18.00;99.90;;;;;;5077144;28;20218;-54
2023/07/16 03:35:30;;;;;;;5.10;2.38;;;18.00;99.90;;;;;;5077011;28;20579;-52
2023/07/16 03:37:56;;;;;;;7.40;2.75;;;17.90;99.90;;;;;;5094937;28;20168;-51
2023/07/16 03:40:26;;;;;;;10.77;2.95;;;17.90;99.90;;;;;;5095134;28;20533;-53
2023/07/16 03:42:52;;;;;;;8.50;1.95;;;17.90;99.90;;;;;;5094775;28;20165;-51
2023/07/16 03:45:18;;;;;;;4.53;2.60;;;17.90;99.90;;;;;;5095231;28;20244;-52
2023/07/16 03:47:44;;;;;;;7.70;2.50;;;17.90;99.90;;;;;;5094931;28;20581;-52
2023/07/16 03:50:10;;;;;;;6.65;2.22;;;18.00;99.90;;;;;;5094794;28;20244;-50
2023/07/16 03:52:35;;;;;;;4.90;2.20;;;17.90;99.90;;;;;;5095032;28;20507;-50
2023/07/16 03:55:01;;;;;;;7.63;2.70;;;17.90;99.90;;;;;;5076450;28;20624;-53
2023/07/16 03:57:30;;;;;;;6.75;2.53;;;17.90;99.90;;;;;;5076324;28;20237;-53
2023/07/16 03:59:56;;;;;;;9.13;2.90;;;17.90;99.90;;;;;;5094628;28;20509;-49
2023/07/16 04:02:22;;;;;;;8.50;3.05;;;17.90;99.90;;;;;;5094415;28;20175;-50
2023/07/16 04:04:47;;;;;;;5.90;2.83;;;18.00;99.90;;;;;;5094919;28;20170;-51
2023/07/16 04:07:13;;;;;;;10.57;2.70;;;18.00;99.90;;;;;;5094363;28;20218;-50
2023/07/16 04:09:39;;;;;;;7.05;3.05;;;18.00;99.90;;;;;;5094269;28;20583;-50
2023/07/16 04:12:06;;;;;;;6.53;2.88;;;17.90;99.90;;;;;;5094166;28;20220;-50
2023/07/16 04:14:32;;;;;;;8.10;2.78;;;18.00;99.90;;;;;;5094247;28;20255;-50
2023/07/16 04:16:57;;;;;;;10.43;3.00;;;18.00;99.90;;;;;;5094188;28;20245;-50
2023/07/16 04:19:23;;;;;;;5.15;2.78;;;18.00;99.90;;;;;;5094140;28;20222;-51
2023/07/16 04:21:48;;;;;;;7.97;2.53;;;18.00;99.90;;;;;;5094490;28;20173;-50
2023/07/16 04:24:14;;;;;;;7.78;2.28;;;18.00;99.90;;;;;;5092843;28;20558;-50
2023/07/16 04:26:39;;;;;;;5.35;2.40;;;18.00;99.90;;;;;;5094030;28;20584;-50
2023/07/16 04:29:05;;;;;;;8.13;2.72;;;18.00;99.90;;;;;;5093910;28;20217;-50
2023/07/16 04:31:31;;;;;;;8.80;2.53;;;18.10;99.90;;;;;;5075732;28;20256;-50
2023/07/16 04:33:56;;;;;;;9.38;2.58;;;18.20;99.90;;;;;;5093903;28;20587;-50
2023/07/16 04:36:22;;;;;;;11.15;3.10;;;18.20;99.90;;;;;;5093973;28;20171;-50
2023/07/16 04:38:47;;;;;;;5.15;2.50;;;18.30;99.90;;;;;;5094250;28;20625;-50
2023/07/16 04:41:13;;;;;;;9.13;2.70;;;18.30;99.90;;;;;;5093613;28;20168;-50
2023/07/16 04:43:39;;;;;;;7.25;2.65;;;18.40;99.90;;;;;;5093654;28;20173;-50
2023/07/16 04:46:05;;;;;;;6.20;2.88;;;18.50;99.90;;;;;;5075483;28;20170;-50
2023/07/16 04:48:31;;;;;;;5.20;2.80;;;18.50;99.90;;;;;;5093460;28;20208;-50
2023/07/16 04:50:56;;;;;;;6.22;2.65;;;18.50;99.90;;;;;;5093856;28;20176;-50
2023/07/16 04:53:22;;;;;;;5.47;3.40;;;18.60;99.90;;;;;;5093437;28;20213;-51
2023/07/16 04:55:48;;;;;;;9.45;3.13;;;18.60;99.90;;;;;;5093806;28;20169;-50
2023/07/16 04:58:14;;;;;;;7.80;2.58;;;18.70;99.90;;;;;;5093220;28;20655;-50
2023/07/16 05:00:40;;;;;;;7.75;2.60;;;18.70;99.90;;;;;;5092986;28;20177;-50
2023/07/16 05:03:05;;;;;;;8.02;2.88;;;18.80;99.90;;;;;;5093299;28;20177;-50
2023/07/16 05:05:31;;;;;;;8.88;3.33;;;18.80;99.90;;;;;;5093336;28;20165;-50
2023/07/16 05:07:56;;;;;;;10.52;2.90;;;18.80;99.90;;;;;;5093149;28;20534;-52
2023/07/16 05:10:22;;;;;;;9.45;3.00;;;18.90;99.90;;;;;;5093006;28;20157;-50
2023/07/16 05:12:47;;;;;;;7.10;3.17;;;18.90;99.90;;;;;;5093541;28;20173;-51
2023/07/16 05:15:13;;;;;;;7.22;3.45;;;18.90;99.90;;;;;;5093074;28;20176;-51
2023/07/16 05:17:39;;;;;;;9.18;3.20;;;18.80;99.90;;;;;;5092916;28;20165;-50
2023/07/16 05:20:05;;;;;;;7.45;2.83;;;18.90;99.90;;;;;;5092813;28;20169;-53
2023/07/16 05:22:32;;;;;;;6.32;3.10;;;18.90;99.90;;;;;;5092896;28;20164;-51
2023/07/16 05:24:57;;;;;;;9.30;2.83;;;19.00;99.90;;;;;;5092735;28;20185;-51
2023/07/16 05:27:23;;;;;;;7.20;3.08;;;18.90;99.90;;;;;;5092607;28;20684;-51
2023/07/16 05:29:48;;;;;;;7.60;3.63;;;18.90;99.90;;;;;;5092942;28;20300;-50
2023/07/16 05:32:14;;;;;;;8.57;3.25;;;18.90;99.90;;;;;;5074809;28;20252;-50
2023/07/16 05:34:40;;;;;;;6.43;3.22;;;19.00;99.90;;;;;;5092668;28;20246;-51
2023/07/16 05:37:05;;;;;;;7.78;3.38;;;19.00;99.90;;;;;;5092671;28;20342;-51
2023/07/16 05:39:31;;;;;;;7.85;3.70;;;19.10;99.90;;;;;;5074426;28;20584;-53
2023/07/16 05:41:57;;;;;;;7.53;3.67;;;19.10;99.90;;;;;;5074451;28;20169;-53
2023/07/16 05:44:22;;;;;;;7.50;3.50;;;19.20;99.90;;;;;;5092498;28;20663;-50
2023/07/16 05:46:48;;;;;;;8.68;3.85;;;19.30;99.90;;;;;;5092883;28;20523;-54
2023/07/16 05:49:14;;;;;;;9.63;4.05;;;19.50;99.90;;;;;;5092340;28;20212;-49
2023/07/16 05:51:39;;;;;;;7.72;3.85;;;19.40;99.90;;;;;;5092353;28;20165;-54
2023/07/16 05:54:06;;;;;;;6.93;3.53;;;19.40;99.90;;;;;;5092353;28;20169;-54
2023/07/16 05:56:31;;;;;;;8.27;3.97;;;19.50;99.90;;;;;;5092451;28;20169;-54
2023/07/16 05:58:57;;;;;;;9.98;4.30;;;19.40;99.90;;;;;;5092263;28;20511;-54
2023/07/16 06:01:23;;;;;;;12.20;4.13;;;19.40;99.90;;;;;;5092461;28;20169;-54
2023/07/16 06:03:48;;;;;;;10.35;4.30;;;19.40;99.90;;;;;;5092480;28;20658;-53
2023/07/16 06:06:14;;;;;;;11.15;4.43;;;19.40;99.90;;;;;;5092590;28;20579;-54
2023/07/16 06:08:39;;;;;;;6.82;3.90;;;19.50;99.90;;;;;;5092127;28;20208;-53
2023/07/16 06:11:05;;;;;;;9.48;4.30;;;19.40;99.90;;;;;;5091902;28;20244;-54
2023/07/16 06:13:31;;;;;;;9.80;3.80;;;19.50;99.90;;;;;;5092075;28;20215;-54
2023/07/16 06:15:56;;;;;;;7.90;4.35;;;19.30;99.90;;;;;;5092059;28;20219;-53
2023/07/16 06:18:22;;;;;;;9.15;4.45;;;19.30;99.90;;;;;;5074146;28;20223;-53
2023/07/16 06:20:48;;;;;;;9.32;4.38;;;19.40;99.90;;;;;;5092282;28;20176;-53
2023/07/16 06:23:16;;;;;;;11.43;4.97;;;19.40;99.90;;;;;;5092379;28;20256;-53
2023/07/16 06:25:44;;;;;;;11.23;4.45;;;19.50;99.90;;;;;;5092004;28;20221;-53
2023/07/16 06:28:10;;;;;;;9.10;4.28;;;19.50;99.90;;;;;;5073596;28;20204;-53
2023/07/16 06:30:36;;;;;;;7.30;4.00;;;19.60;99.90;;;;;;5091918;28;20180;-53
2023/07/16 06:33:02;;;;;;;8.65;4.38;;;19.60;99.90;;;;;;5091723;28;20197;-53
2023/07/16 06:35:28;;;;;;;8.52;4.63;;;19.70;99.90;;;;;;5091727;28;20201;-53
2023/07/16 06:37:53;;;;;;;7.95;4.60;;;19.70;99.90;;;;;;5091677;28;20153;-53
2023/07/16 06:40:19;;;;;;;10.27;4.70;;;19.60;99.90;;;;;;5091560;28;20572;-52
2023/07/16 06:42:44;;;;;;;8.60;4.35;;;19.60;99.90;;;;;;5092163;28;20684;-53
2023/07/16 06:45:10;;;;;;;9.60;4.60;;;19.60;99.90;;;;;;5091461;28;20238;-53
2023/07/16 06:47:36;;;;;;;12.77;4.95;;;20.00;99.90;;;;;;5091139;28;20199;-54
2023/07/16 06:50:02;;;;;;;12.02;4.35;;;19.90;99.90;;;;;;5091506;28;20197;-54
2023/07/16 06:52:28;;;;;;;5.88;4.25;;;20.00;99.90;;;;;;5091591;28;20166;-53
2023/07/16 06:54:55;;;;;;;5.50;4.53;;;19.90;99.90;;;;;;5091771;28;20166;-53
2023/07/16 06:57:21;;;;;;;8.93;4.63;;;19.60;99.90;;;;;;5091413;28;20158;-54
2023/07/16 06:59:46;;;;;;;9.32;4.95;;;19.80;99.90;;;;;;5091915;28;20164;-54
2023/07/16 07:02:12;;;;;;;9.70;5.13;;;19.70;99.90;;;;;;5073311;28;20173;-52
2023/07/16 07:04:38;;;;;;;7.93;5.00;;;19.80;99.90;;;;;;5091378;28;20260;-53
2023/07/16 07:07:04;;;;;;;9.55;4.93;;;19.90;99.90;;;;;;5091522;28;20176;-50
2023/07/16 07:09:29;;;;;;;8.70;4.18;;;20.00;99.90;;;;;;5091351;28;20209;-50
2023/07/16 07:11:55;;;;;;;9.98;4.57;;;19.70;99.90;;;;;;5091281;28;20262;-50
2023/07/16 07:14:20;;;;;;;11.23;4.50;;;19.80;99.90;;;;;;5091264;28;20651;-50
2023/07/16 07:16:46;;;;;;;7.95;4.07;;;19.90;99.90;;;;;;5091770;28;20161;-51
2023/07/16 07:19:11;;;;;;;9.18;4.90;;;19.90;99.90;;;;;;5091329;28;20278;-50
2023/07/16 07:21:37;;;;;;;6.78;4.75;;;20.10;99.90;;;;;;5091102;28;20193;-50
2023/07/16 07:24:03;;;;;;;10.73;4.30;;;20.00;99.90;;;;;;5091112;28;20158;-53
2023/07/16 07:26:28;;;;;;;9.10;4.97;;;20.00;99.90;;;;;;5091021;28;20169;-50
2023/07/16 07:28:54;;;;;;;14.20;5.47;;;20.40;99.90;;;;;;5091112;28;20212;-50
2023/07/16 07:31:19;;;;;;;9.55;4.60;;;20.40;99.90;;;;;;5091130;28;20176;-50
2023/07/16 07:33:45;;;;;;;6.05;3.58;;;20.50;99.90;;;;;;5091575;28;20171;-51
2023/07/16 07:36:10;;;;;;;9.55;4.70;;;20.50;99.90;;;;;;5091402;28;20252;-50
2023/07/16 07:38:36;;;;;;;6.80;4.10;;;20.60;99.90;;;;;;5091143;28;20201;-50
2023/07/16 07:41:02;;;;;;;7.32;5.25;;;20.50;99.90;;;;;;5091100;28;20553;-50
2023/07/16 07:43:27;;;;;;;7.28;4.65;;;20.60;99.90;;;;;;5091032;28;20165;-50
2023/07/16 07:45:53;;;;;;;10.25;4.95;;;20.60;99.90;;;;;;5091239;28;20201;-50
2023/07/16 07:48:18;;;;;;;8.43;4.10;;;20.50;99.90;;;;;;5072816;28;20685;-50
2023/07/16 07:50:46;;;;;;;13.00;5.43;;;20.60;99.90;;;;;;5091641;28;20236;-50
2023/07/16 07:53:12;;;;;;;8.32;4.47;;;20.80;99.90;;;;;;5090896;28;20240;-50
2023/07/16 07:55:37;;;;;;;15.10;4.47;;;21.00;99.90;;;;;;5090949;28;20200;-50
2023/07/16 07:58:03;;;;;;;8.80;4.25;;;21.20;99.90;;;;;;5092983;28;20624;-51
2023/07/16 08:00:28;;;;;;;11.77;4.45;;;21.40;99.90;;;;;;5094634;28;20166;-51
2023/07/16 08:02:54;;;;;;;6.30;3.55;;;21.30;99.90;;;;;;5094500;28;20166;-53
2023/07/16 08:05:21;;;;;;;7.43;4.32;;;21.10;99.90;;;;;;5094382;28;20169;-50
2023/07/16 08:07:47;;;;;;;11.98;4.43;;;21.40;99.90;;;;;;5094639;28;20169;-50
2023/07/16 08:10:13;;;;;;;9.23;4.50;;;21.60;99.90;;;;;;5094031;28;20578;-50
2023/07/16 08:12:38;;;;;;;9.70;4.60;;;21.60;99.90;;;;;;5094281;28;20162;-51
2023/07/16 08:15:05;;;;;;;8.80;4.13;;;21.60;99.90;;;;;;5094225;28;20299;-50
2023/07/16 08:17:31;;;;;;;7.13;3.95;;;21.40;99.90;;;;;;5094454;28;20173;-50
2023/07/16 08:19:56;;;;;;;9.02;4.13;;;21.30;99.90;;;;;;5094087;28;20173;-50
2023/07/16 08:22:23;;;;;;;7.95;4.70;;;21.70;99.90;;;;;;5094036;28;20169;-51
2023/07/16 08:24:50;;;;;;;7.72;3.80;;;21.80;99.90;;;;;;5094049;28;20274;-51
2023/07/16 08:27:16;;;;;;;8.50;4.00;;;21.90;99.90;;;;;;5094706;28;20173;-50
2023/07/16 08:29:42;;;;;;;9.88;3.20;;;21.70;99.90;;;;;;5093775;28;20204;-50
2023/07/16 08:32:07;;;;;;;6.13;3.80;;;21.60;99.90;;;;;;5093888;28;20195;-50
2023/07/16 08:34:33;;;;;;;5.57;3.03;;;21.70;99.90;;;;;;5093936;28;20196;-50
2023/07/16 08:36:59;;;;;;;8.05;3.97;;;21.50;99.90;;;;;;5093959;28;20169;-50
2023/07/16 08:39:24;;;;;;;6.72;3.40;;;21.70;99.90;;;;;;5093701;28;20647;-50
2023/07/16 08:41:50;;;;;;;7.13;3.70;;;21.70;99.90;;;;;;5093698;28;20165;-50
2023/07/16 08:44:16;;;;;;;6.57;3.80;;;22.00;99.90;;;;;;5094015;28;20176;-50
2023/07/16 08:46:41;;;;;;;13.10;4.20;;;22.20;99.90;;;;;;5093843;28;20261;-54
2023/07/16 08:49:07;;;;;;;12.80;3.60;;;22.20;99.90;;;;;;5093494;28;20668;-52
2023/07/16 08:51:35;;;;;;;11.00;4.25;;;22.00;99.90;;;;;;5093622;28;20162;-50
2023/07/16 08:54:01;;;;;;;10.98;3.63;;;22.20;99.90;;;;;;5093497;28;20165;-51
2023/07/16 08:56:27;;;;;;;7.10;3.40;;;22.60;99.90;;;;;;5093500;28;20176;-50
2023/07/16 08:58:58;;;;;;;6.95;3.67;;;22.50;99.90;;;;;;5093631;28;20177;-53
2023/07/16 09:01:23;;;;;;;8.57;3.38;;;22.40;99.90;;;;;;5093303;28;20199;-51
2023/07/16 09:03:49;;;;;;;10.10;3.60;;;22.40;99.90;;;;;;5093483;28;20197;-54
2023/07/16 09:06:15;;;;;;;6.60;3.65;;;22.50;99.90;;;;;;5093696;28;20649;-53
2023/07/16 09:08:41;;;;;;;7.25;3.50;;;22.60;99.90;;;;;;5092711;28;20204;-51
2023/07/16 09:11:11;;;;;;;6.32;2.97;;;22.80;99.90;;;;;;5092796;28;20226;-51
2023/07/16 09:13:37;;;;;;;5.43;3.33;;;22.60;99.90;;;;;;5093130;28;20652;-53
2023/07/16 09:16:03;;;;;;;5.50;3.40;;;22.80;99.90;;;;;;5093130;28;20171;-53
2023/07/16 09:18:28;;;;;;;5.47;3.42;;;23.00;99.90;;;;;;5093189;28;20496;-51
2023/07/16 09:20:58;;;;;;;6.28;3.78;;;22.90;99.90;;;;;;5092905;28;20166;-50
2023/07/16 09:23:27;;;;;;;5.60;3.25;;;23.00;99.90;;;;;;5093101;28;20177;-53
2023/07/16 09:25:54;;;;;;;5.00;3.65;;;23.30;99.90;;;;;;5093077;28;20255;-53
2023/07/16 09:28:20;;;;;;;4.55;2.92;;;22.70;99.90;;;;;;5092682;28;20573;-52
2023/07/16 09:30:47;;;;;;;4.20;2.88;;;22.70;99.90;;;;;;5093442;28;20264;-53
2023/07/16 09:33:16;;;;;;;9.05;3.30;;;22.40;99.90;;;;;;5093223;28;20230;-52
2023/07/16 09:35:42;;;;;;;6.93;3.40;;;22.70;99.90;;;;;;5092608;28;20162;-53
2023/07/16 09:38:09;;;;;;;7.68;3.90;;;22.40;99.90;;;;;;5092563;28;20165;-51
2023/07/16 09:40:39;;;;;;;7.18;3.40;;;22.80;99.90;;;;;;5092607;28;20221;-53
2023/07/16 09:43:06;;;;;;;7.72;4.03;;;23.00;99.90;;;;;;5092823;28;20169;-51
2023/07/16 09:45:31;;;;;;;6.40;3.22;;;23.00;99.90;;;;;;5092578;28;20173;-54
2023/07/16 09:47:57;;;;;;;4.95;3.38;;;23.00;99.90;;;;;;5092466;28;20168;-51
2023/07/16 09:50:29;;;;;;;4.40;3.10;;;23.10;99.90;;;;;;5092410;28;20173;-54
2023/07/16 09:52:56;;;;;;;6.90;3.38;;;22.90;99.90;;;;;;5092410;28;20165;-53
2023/07/16 09:55:23;;;;;;;4.30;3.40;;;23.50;99.90;;;;;;5092559;28;20200;-53
2023/07/16 09:57:52;;;;;;;5.07;3.17;;;23.70;99.90;;;;;;5092505;28;20171;-53
2023/07/16 10:00:20;;;;;;;4.57;2.92;;;23.70;99.90;;;;;;5092689;28;20283;-53
2023/07/16 10:02:46;;;;;;;5.25;3.50;;;23.60;99.90;;;;;;5092823;28;20523;-53
2023/07/16 10:05:18;;;;;;;5.55;3.10;;;23.60;99.90;;;;;;5092179;28;20509;-53
2023/07/16 10:07:52;;;;;;;3.92;2.70;;;23.80;99.90;;;;;;5092605;28;20189;-54
2023/07/16 10:10:18;;;;;;;4.80;3.05;;;23.60;99.90;;;;;;5091893;28;20542;-51
2023/07/16 10:12:56;;;;;;;6.45;3.72;;;23.50;99.90;;;;;;5092713;28;20173;-54
2023/07/16 10:15:27;;;;;;;4.00;3.30;;;24.10;99.90;;;;;;5091924;28;20691;-53
2023/07/16 10:17:53;;;;;;;6.57;3.05;;;24.20;99.90;;;;;;5092039;28;20167;-53
2023/07/16 10:20:42;;;;;;;6.00;2.92;;;23.80;99.90;;;;;;5091612;28;20173;-54
2023/07/16 10:23:14;;;;;;;12.02;3.75;;;23.60;99.90;;;;;;5092069;28;20179;-53
2023/07/16 10:25:41;;;;;;;7.60;3.20;;;23.30;99.90;;;;;;5091926;28;20259;-53
2023/07/16 10:28:06;;;;;;;5.32;3.28;;;23.50;99.90;;;;;;5091649;28;20235;-54
2023/07/16 10:30:34;;;;;;;7.03;3.40;;;23.80;99.90;;;;;;5091720;28;20200;-53
2023/07/16 10:33:03;;;;;;;4.82;3.30;;;24.30;99.90;;;;;;5091941;28;20222;-54
2023/07/16 10:35:29;;;;;;;6.43;3.08;;;24.70;99.90;;;;;;5091997;28;20179;-52
2023/07/16 10:37:54;;;;;;;6.28;3.45;;;25.00;99.90;;;;;;5091950;28;20244;-53
2023/07/16 10:40:20;;;;;;;9.57;3.17;;;25.20;98.60;;;;;;5091703;28;20260;-53
2023/07/16 10:42:48;;;;;;;4.80;2.53;;;24.90;97.00;;;;;;5092098;28;20164;-51
2023/07/16 10:45:14;;;;;;;12.82;3.20;;;24.40;96.90;;;;;;5092053;28;20165;-52
2023/07/16 10:47:53;;;;;;;7.05;3.63;;;24.60;98.30;;;;;;5091635;28;20165;-53
2023/07/16 10:50:21;;;;;;;12.27;3.70;;;24.40;97.90;;;;;;5091439;28;20184;-53
2023/07/16 10:52:56;;;;;;;7.28;3.42;;;24.70;98.50;;;;;;5092066;28;20505;-52
2023/07/16 10:55:23;;;;;;;5.88;3.08;;;24.50;98.70;;;;;;5073404;28;20172;-53
2023/07/16 10:57:49;;;;;;;6.03;2.53;;;24.50;98.40;;;;;;5091508;28;20197;-53
2023/07/16 11:00:16;;;;;;;4.05;3.13;;;24.50;98.20;;;;;;5091910;28;20707;-53
2023/07/16 11:02:43;;;;;;;6.50;3.22;;;24.70;97.20;;;;;;5091705;28;20204;-52
2023/07/16 11:05:15;;;;;;;4.43;3.13;;;24.30;96.80;;;;;;5091362;28;20707;-52
2023/07/16 11:07:49;;;;;;;5.95;3.47;;;24.50;97.00;;;;;;5091372;28;20648;-53
2023/07/16 11:10:18;;;;;;;11.35;3.58;;;24.40;96.80;;;;;;5091856;28;20177;-55
2023/07/16 11:12:43;;;;;;;10.90;3.78;;;24.70;97.60;;;;;;5091707;28;20175;-54
2023/07/16 11:15:10;;;;;;;15.13;3.45;;;24.80;97.60;;;;;;5091249;28;20169;-51
2023/07/16 11:17:39;;;;;;;9.57;3.20;;;25.20;96.90;;;;;;5091570;28;20536;-51
2023/07/16 11:20:14;;;;;;;4.70;3.30;;;25.20;95.60;;;;;;5091525;28;20169;-51
2023/07/16 11:22:40;;;;;;;3.95;3.00;;;24.70;95.70;;;;;;5091303;28;20164;-53
2023/07/16 11:25:15;;;;;;;8.15;3.17;;;24.50;95.60;;;;;;5091299;28;20165;-52
2023/07/16 11:27:41;;;;;;;8.70;3.58;;;24.50;96.80;;;;;;5091231;28;20167;-53
2023/07/16 11:30:08;;;;;;;3.95;3.17;;;25.20;97.70;;;;;;5091458;28;20255;-51
2023/07/16 11:32:35;;;;;;;4.85;3.30;;;25.20;96.50;;;;;;5092611;28;20173;-51
2023/07/16 11:35:04;;;;;;;2.95;2.45;;;25.00;96.90;;;;;;5094997;28;20284;-53
2023/07/16 11:37:30;;;;;;;3.78;2.95;;;24.70;96.00;;;;;;5094938;28;20157;-54
2023/07/16 11:40:03;;;;;;;4.15;2.88;;;24.80;96.70;;;;;;5094920;28;20165;-52
2023/07/16 11:42:30;;;;;;;7.28;3.00;;;25.00;96.10;;;;;;5095187;28;20199;-52
2023/07/16 11:44:56;;;;;;;7.15;3.38;;;25.40;95.40;;;;;;5094859;28;20156;-51
2023/07/16 11:47:22;;;;;;;6.90;3.03;;;25.20;95.50;;;;;;5094896;28;20169;-52
2023/07/16 11:49:49;;;;;;;6.47;3.10;;;24.80;95.10;;;;;;5094921;28;20295;-51
2023/07/16 11:52:18;;;;;;;4.88;2.65;;;24.90;95.50;;;;;;5095217;28;20621;-53
2023/07/16 11:54:43;;;;;;;6.05;3.33;;;25.20;95.50;;;;;;5095128;28;20173;-50
2023/07/16 11:57:09;;;;;;;5.00;3.40;;;24.90;94.70;;;;;;5094663;28;20171;-50
2023/07/16 11:59:34;;;;;;;6.72;3.45;;;24.70;94.80;;;;;;5094653;28;20188;-52
2023/07/16 12:02:00;;;;;;;5.95;3.20;;;24.80;95.80;;;;;;5094547;28;20169;-52
2023/07/16 12:04:26;;;;;;;3.58;2.97;;;25.20;94.60;;;;;;5094614;28;20176;-52
2023/07/16 12:06:51;;;;;;;5.85;3.45;;;25.50;93.90;;;;;;5094474;28;20640;-51
2023/07/16 12:09:17;;;;;;;4.45;3.15;;;25.00;94.30;;;;;;5076521;28;20200;-52
2023/07/16 12:11:43;;;;;;;6.10;3.75;;;25.00;94.70;;;;;;5094770;28;20224;-50
2023/07/16 12:14:08;;;;;;;6.40;3.67;;;25.40;95.30;;;;;;5094309;28;20165;-51
2023/07/16 12:16:34;;;;;;;4.25;3.28;;;25.30;95.60;;;;;;5094287;28;20169;-50
2023/07/16 12:19:00;;;;;;;6.25;3.05;;;25.60;95.00;;;;;;5094279;28;20219;-51
2023/07/16 12:21:25;;;;;;;6.57;3.47;;;25.50;94.20;;;;;;5094111;28;20169;-51
2023/07/16 12:23:51;;;;;;;5.32;3.47;;;25.20;93.90;;;;;;5075981;28;20176;-51
2023/07/16 12:26:16;;;;;;;3.67;3.35;;;25.00;94.10;;;;;;5094509;28;20192;-53
2023/07/16 12:28:42;;;;;;;3.47;3.15;;;25.60;94.40;;;;;;5094340;28;20232;-55
2023/07/16 12:31:07;;;;;;;4.68;3.20;;;25.80;92.30;;;;;;5094002;28;20165;-51
2023/07/16 12:33:33;;;;;;;4.25;3.28;;;25.10;92.50;;;;;;5093908;28;20161;-50
2023/07/16 12:35:58;;;;;;;7.55;3.50;;;25.10;93.50;;;;;;5093922;28;20177;-54
2023/07/16 12:38:24;;;;;;;5.88;3.20;;;25.50;93.50;;;;;;5093827;28;20168;-54
2023/07/16 12:40:49;;;;;;;5.97;3.60;;;25.70;93.70;;;;;;5093736;28;20167;-53
2023/07/16 12:43:15;;;;;;;6.05;3.30;;;25.70;93.70;;;;;;5093928;28;20173;-52